Plum, Pennsylvania
Current Conditions -  °F | °C
As of 12:53 PM on Saturday 20 Dec 2014 (Local Time) from KAGC Reporting Station
Clear Clear  
Wind Chill: -2°   Ceiling: Unl
Heat Index: -2°   Visibility: 10mi
Dew Point: -9°   Wind: 3mph
Humidity: 58%   Direction: 230°SW
Pressure: 30.21"   Gusts: NA
Location:  40.5°N, 79.76°W
Report Text: KAGC 201753Z 23003KT 10SM CLR M02/M09 A3021 RMK AO2 SLP249 T10171089 11011 21039 58018
Loading
Personal Weather Stations






























Interactive Weather Map New forecast layout! Learn more

10-Day Weather Forecast

Advertisements
Track Severe Weather on mobile